Time;durP1;ratioP1;P1;durP2;ratioP2;P2;SDS_P1;SDS_P2;PMS_P1;PMS_P2;Temp;Humidity;BMP_temperature;BMP_pressure;BME280_temperature;BME280_humidity;BME280_pressure;Samples;Min_cycle;Max_cycle;Signal;HPM_P1;HPM_P2
2021/01/11 00:00:25;;;;;;;36.07;24.73;;;3.90;95.90;;;;;;5053259;28;20055;-85
2021/01/11 00:02:53;;;;;;;39.87;25.57;;;3.90;95.90;;;;;;5085665;28;20095;-84
2021/01/11 00:05:20;;;;;;;40.33;25.33;;;3.90;96.10;;;;;;5057512;28;20056;-84
2021/01/11 00:07:47;;;;;;;41.20;26.90;;;3.90;95.90;;;;;;5071393;28;20048;-80
2021/01/11 00:10:14;;;;;;;35.73;24.10;;;3.90;95.90;;;;;;5069400;28;20118;-80
2021/01/11 00:12:43;;;;;;;35.37;23.80;;;3.90;95.90;;;;;;5087186;28;20035;-79
2021/01/11 00:15:12;;;;;;;36.87;24.17;;;4.00;95.90;;;;;;5071749;28;20042;-79
2021/01/11 00:25:10;;;;;;;35.50;23.55;;;3.90;95.90;;;;;;5498143;24;20465;-81
2021/01/11 00:27:37;;;;;;;41.83;24.27;;;4.00;95.90;;;;;;4753711;29;20043;-81
2021/01/11 00:30:08;;;;;;;39.30;23.70;;;3.90;95.90;;;;;;4766872;29;20525;-81
2021/01/11 00:32:35;;;;;;;40.17;24.87;;;3.90;95.90;;;;;;4771382;29;20510;-82
2021/01/11 00:35:04;;;;;;;35.77;23.30;;;3.90;95.90;;;;;;4767885;29;20041;-82
2021/01/11 00:37:31;;;;;;;39.20;23.53;;;3.90;96.00;;;;;;4753174;29;20050;-81
2021/01/11 00:39:58;;;;;;;33.50;21.70;;;3.90;96.00;;;;;;4781591;29;20058;-82
2021/01/11 00:42:25;;;;;;;31.90;20.73;;;3.90;96.00;;;;;;4782724;29;20045;-81
2021/01/11 00:44:51;;;;;;;39.07;23.70;;;4.00;96.00;;;;;;4768079;29;20054;-81
2021/01/11 00:47:18;;;;;;;38.30;22.80;;;4.00;96.00;;;;;;4797518;29;20093;-81
2021/01/11 00:49:44;;;;;;;41.40;26.10;;;4.00;96.00;;;;;;4797064;29;20506;-81
2021/01/11 00:52:11;;;;;;;38.57;23.87;;;4.00;96.00;;;;;;4782529;29;20042;-83
2021/01/11 00:54:40;;;;;;;36.53;21.80;;;4.00;96.00;;;;;;4752482;29;20066;-83
2021/01/11 00:57:11;;;;;;;41.90;24.30;;;4.00;96.00;;;;;;4797443;29;20054;-83
2021/01/11 00:59:47;;;;;;;43.30;25.13;;;4.00;96.00;;;;;;4766727;29;20135;-81
2021/01/11 01:02:18;;;;;;;39.37;24.90;;;4.00;96.00;;;;;;4752269;29;20135;-81
2021/01/11 01:04:45;;;;;;;43.53;26.07;;;4.00;96.00;;;;;;4752808;29;20047;-81
2021/01/11 01:07:12;;;;;;;44.20;26.93;;;4.00;96.00;;;;;;4797415;29;20049;-81
2021/01/11 01:09:41;;;;;;;44.40;25.90;;;4.00;96.00;;;;;;4765818;29;20051;-81
2021/01/11 01:12:07;;;;;;;41.37;23.77;;;3.90;96.00;;;;;;4796951;29;20043;-83
2021/01/11 01:14:34;;;;;;;41.97;27.13;;;4.00;96.30;;;;;;4754090;29;20063;-84
2021/01/11 01:17:01;;;;;;;43.17;24.93;;;3.90;96.00;;;;;;4782521;29;20043;-83
2021/01/11 01:19:27;;;;;;;45.90;26.87;;;3.90;96.00;;;;;;4781893;29;20061;-83
2021/01/11 01:21:54;;;;;;;46.87;27.73;;;3.90;96.00;;;;;;4753615;29;20047;-83
2021/01/11 01:24:20;;;;;;;46.10;27.00;;;3.90;96.00;;;;;;4771061;29;20551;-83
2021/01/11 01:26:47;;;;;;;49.43;28.53;;;4.00;96.00;;;;;;4798506;29;20058;-81
2021/01/11 01:29:13;;;;;;;49.30;27.73;;;3.90;96.00;;;;;;4799408;29;20131;-81
2021/01/11 01:31:40;;;;;;;50.90;28.97;;;3.90;96.00;;;;;;4799985;29;20061;-81
2021/01/11 01:34:06;;;;;;;50.80;30.10;;;3.90;96.10;;;;;;4770906;29;20577;-81
2021/01/11 01:36:33;;;;;;;48.10;28.07;;;3.90;96.30;;;;;;4784517;29;20062;-81
2021/01/11 01:38:59;;;;;;;49.17;28.17;;;3.90;96.10;;;;;;4770364;29;20134;-81
2021/01/11 01:41:26;;;;;;;53.67;29.83;;;3.90;96.10;;;;;;4761635;29;20710;-81
2021/01/11 01:43:52;;;;;;;57.57;31.87;;;3.90;96.10;;;;;;4762843;29;20051;-81
2021/01/11 01:46:22;;;;;;;51.43;29.13;;;3.90;96.10;;;;;;4770647;29;20047;-81
2021/01/11 01:48:49;;;;;;;51.87;28.30;;;3.90;96.10;;;;;;4784132;29;20039;-81
2021/01/11 01:51:16;;;;;;;49.13;27.63;;;3.90;96.10;;;;;;4783129;29;20046;-81
2021/01/11 01:53:44;;;;;;;52.83;29.60;;;3.90;96.10;;;;;;4784332;29;20035;-83
2021/01/11 01:56:12;;;;;;;49.60;28.83;;;3.90;96.10;;;;;;4784227;29;20050;-83
2021/01/11 01:58:39;;;;;;;50.63;28.50;;;3.90;96.10;;;;;;4768481;29;20047;-83
2021/01/11 02:01:06;;;;;;;47.53;27.93;;;3.90;96.10;;;;;;4770436;29;20050;-84
2021/01/11 02:03:32;;;;;;;47.13;26.43;;;3.90;96.20;;;;;;4771507;29;20050;-84
2021/01/11 02:05:59;;;;;;;57.13;30.87;;;3.90;96.20;;;;;;4752147;29;20047;-84
2021/01/11 02:08:29;;;;;;;48.73;28.23;;;3.90;96.10;;;;;;4783339;29;20062;-83
2021/01/11 02:11:14;;;;;;;54.83;28.97;;;4.00;96.20;;;;;;4797919;29;20046;-83
2021/01/11 02:13:55;;;;;;;46.57;25.77;;;4.00;96.20;;;;;;4772002;29;20404;-84
2021/01/11 02:16:53;;;;;;;53.83;30.00;;;4.00;96.20;;;;;;4780969;29;20450;-83
2021/01/11 02:19:43;;;;;;;54.37;29.73;;;4.00;96.20;;;;;;4797575;29;20058;-83
2021/01/11 02:22:26;;;;;;;57.43;32.00;;;4.00;96.20;;;;;;4772141;29;20053;-84
2021/01/11 02:25:03;;;;;;;;;;;4.00;96.20;;;;;;4785018;29;20501;-84
2021/01/11 02:27:39;;;;;;;64.63;33.73;;;4.00;96.20;;;;;;4784957;29;19927;-84
2021/01/11 02:30:11;;;;;;;80.57;38.07;;;4.00;96.20;;;;;;4795461;29;20055;-84
2021/01/11 02:32:45;;;;;;;68.22;35.58;;;3.90;96.10;;;;;;4785773;29;20514;-82
2021/01/11 02:35:13;;;;;;;66.27;35.67;;;3.90;96.10;;;;;;4800451;29;20041;-83
2021/01/11 02:37:40;;;;;;;68.60;35.93;;;3.90;96.10;;;;;;4784501;29;20494;-83
2021/01/11 02:40:08;;;;;;;67.77;36.03;;;3.90;96.10;;;;;;4783002;29;20058;-83
2021/01/11 02:42:34;;;;;;;71.60;37.60;;;3.90;96.10;;;;;;4787662;29;20046;-83
2021/01/11 02:45:03;;;;;;;69.43;35.20;;;3.80;96.10;;;;;;4784525;29;20058;-83
2021/01/11 02:47:41;;;;;;;67.40;34.47;;;3.80;96.10;;;;;;4784814;29;20062;-83
2021/01/11 02:50:13;;;;;;;67.73;34.53;;;3.80;96.20;;;;;;4795255;29;20059;-83
2021/01/11 02:53:00;;;;;;;76.07;37.97;;;3.80;96.20;;;;;;4781099;29;20062;-83
2021/01/11 02:55:58;;;;;;;65.53;33.40;;;3.80;96.20;;;;;;4780957;29;20054;-84
2021/01/11 02:58:44;;;;;;;74.73;38.53;;;3.80;96.20;;;;;;4759310;29;20078;-83
2021/01/11 03:01:14;;;;;;;79.37;38.70;;;3.80;96.20;;;;;;4798626;29;20729;-83
2021/01/11 03:03:43;;;;;;;76.20;40.23;;;3.80;96.10;;;;;;4767984;29;20042;-82
2021/01/11 03:06:13;;;;;;;78.40;41.03;;;3.80;96.20;;;;;;4783816;29;20051;-83
2021/01/11 03:08:40;;;;;;;79.97;37.93;;;3.70;96.20;;;;;;4783343;29;20055;-83
2021/01/11 03:11:06;;;;;;;70.40;36.57;;;3.80;96.20;;;;;;4798046;29;20047;-83
2021/01/11 03:13:33;;;;;;;80.23;39.93;;;3.80;96.20;;;;;;4768927;29;20047;-83
2021/01/11 03:15:59;;;;;;;72.93;38.20;;;3.80;96.20;;;;;;4760964;29;20043;-83
2021/01/11 03:18:26;;;;;;;77.73;38.83;;;3.70;96.20;;;;;;4782166;29;20054;-83
2021/01/11 03:20:52;;;;;;;70.33;36.93;;;3.70;96.20;;;;;;4788636;29;20070;-83
2021/01/11 03:23:19;;;;;;;72.17;37.03;;;3.80;96.30;;;;;;4797581;29;20055;-83
2021/01/11 03:25:45;;;;;;;69.50;35.17;;;3.70;96.30;;;;;;4775264;29;20054;-83
2021/01/11 03:28:12;;;;;;;70.93;35.33;;;3.80;96.30;;;;;;4782946;29;20595;-83
2021/01/11 03:30:39;;;;;;;72.07;37.67;;;3.80;96.30;;;;;;4760808;29;20043;-83
2021/01/11 03:33:05;;;;;;;66.40;33.80;;;3.80;96.30;;;;;;4769119;29;20047;-83
2021/01/11 03:35:32;;;;;;;71.23;36.37;;;3.80;96.30;;;;;;4773259;29;20051;-83
2021/01/11 03:37:58;;;;;;;74.73;38.23;;;3.70;96.20;;;;;;4783265;29;20059;-83
2021/01/11 03:40:25;;;;;;;86.57;43.27;;;3.80;96.30;;;;;;4776095;29;20062;-83
2021/01/11 03:42:51;;;;;;;71.83;35.77;;;3.70;96.20;;;;;;4770103;29;20521;-83
2021/01/11 03:45:18;;;;;;;102.20;45.57;;;3.70;96.20;;;;;;4768407;29;20051;-83
2021/01/11 03:47:44;;;;;;;91.23;42.73;;;3.70;96.20;;;;;;4799406;29;20046;-83
2021/01/11 03:50:12;;;;;;;86.17;41.67;;;3.70;96.20;;;;;;4767680;29;20050;-83
2021/01/11 03:52:39;;;;;;;86.93;40.43;;;3.70;96.20;;;;;;4786426;29;20051;-83
2021/01/11 03:55:06;;;;;;;75.23;35.00;;;3.60;96.20;;;;;;4768861;29;20050;-83
2021/01/11 03:57:32;;;;;;;79.83;38.50;;;3.60;96.20;;;;;;4799348;29;20502;-83
2021/01/11 03:59:59;;;;;;;84.83;37.53;;;3.60;96.20;;;;;;4755583;29;20050;-83
2021/01/11 04:02:26;;;;;;;75.40;34.53;;;3.60;96.20;;;;;;4769045;29;20462;-83
2021/01/11 04:04:53;;;;;;;93.20;40.10;;;3.60;96.20;;;;;;4797904;29;20050;-83
2021/01/11 04:07:19;;;;;;;81.23;38.73;;;3.60;96.30;;;;;;4783493;29;20050;-83
2021/01/11 04:09:46;;;;;;;84.23;36.73;;;3.60;96.20;;;;;;4796624;29;20059;-83
2021/01/11 04:12:12;;;;;;;105.13;41.30;;;3.60;96.30;;;;;;4798281;29;20053;-83
2021/01/11 04:14:39;;;;;;;94.50;38.77;;;3.60;96.30;;;;;;4797925;29;20058;-82
2021/01/11 04:17:05;;;;;;;102.70;44.17;;;3.60;96.20;;;;;;4768613;29;20047;-82
2021/01/11 04:19:32;;;;;;;91.83;37.00;;;3.50;96.20;;;;;;4796582;29;20055;-82
2021/01/11 04:21:58;;;;;;;91.73;36.27;;;3.50;96.30;;;;;;4775305;29;20059;-82
2021/01/11 04:24:25;;;;;;;103.00;41.67;;;3.50;96.40;;;;;;4780651;29;20067;-82
2021/01/11 04:26:51;;;;;;;86.23;36.70;;;3.50;96.40;;;;;;4758526;29;20062;-82
2021/01/11 04:29:18;;;;;;;99.07;38.37;;;3.40;96.40;;;;;;4759996;29;20043;-82
2021/01/11 04:31:48;;;;;;;87.17;35.53;;;3.40;96.40;;;;;;4760327;29;20048;-82
2021/01/11 04:34:15;;;;;;;104.73;39.90;;;3.40;96.50;;;;;;4783016;29;20035;-82
2021/01/11 04:36:41;;;;;;;94.80;36.13;;;3.40;96.50;;;;;;4783015;29;20054;-81
2021/01/11 04:39:08;;;;;;;97.97;39.00;;;3.40;96.50;;;;;;4769667;29;20070;-81
2021/01/11 04:41:39;;;;;;;87.70;34.30;;;3.40;96.60;;;;;;4765350;29;20047;-82
2021/01/11 04:44:12;;;;;;;89.47;35.07;;;3.30;96.90;;;;;;4781418;29;20047;-81
2021/01/11 04:46:39;;;;;;;98.13;37.23;;;3.30;96.60;;;;;;4796583;29;20100;-81
2021/01/11 04:49:06;;;;;;;92.07;36.17;;;3.30;96.60;;;;;;4795726;29;20042;-81
2021/01/11 04:51:33;;;;;;;86.77;32.83;;;3.30;96.60;;;;;;4768454;29;20049;-81
2021/01/11 04:54:00;;;;;;;98.00;34.37;;;3.30;96.70;;;;;;4766793;29;20047;-81
2021/01/11 04:56:28;;;;;;;85.93;33.33;;;3.20;96.70;;;;;;4761013;29;20459;-81
2021/01/11 04:59:00;;;;;;;121.23;40.27;;;3.20;96.70;;;;;;4762897;29;20051;-81
2021/01/11 05:01:28;;;;;;;97.20;36.05;;;3.30;96.80;;;;;;4785478;29;20070;-81
2021/01/11 05:04:02;;;;;;;98.27;34.50;;;3.20;96.80;;;;;;4776010;29;20885;-81
2021/01/11 05:06:29;;;;;;;92.33;33.90;;;3.20;96.80;;;;;;4801294;29;20463;-81
2021/01/11 05:09:04;;;;;;;96.60;33.97;;;3.20;96.80;;;;;;4799697;29;20498;-82
2021/01/11 05:11:31;;;;;;;111.67;38.50;;;3.20;96.80;;;;;;4783780;29;20047;-81
2021/01/11 05:13:57;;;;;;;110.07;36.63;;;3.20;96.80;;;;;;4775779;29;20062;-81
2021/01/11 05:16:24;;;;;;;105.50;37.67;;;3.20;96.80;;;;;;4770199;29;20069;-81
2021/01/11 05:18:53;;;;;;;111.37;38.93;;;3.20;96.90;;;;;;4762729;29;20054;-82
2021/01/11 05:21:44;;;;;;;90.73;35.50;;;3.20;96.90;;;;;;4775430;29;20059;-81
2021/01/11 05:24:27;;;;;;;89.30;33.67;;;3.20;96.90;;;;;;4785773;29;20039;-81
2021/01/11 05:26:55;;;;;;;91.32;35.17;;;3.20;96.90;;;;;;4799920;29;20062;-81
2021/01/11 05:29:22;;;;;;;94.50;34.53;;;3.20;97.00;;;;;;4784665;29;20039;-82
2021/01/11 05:32:03;;;;;;;92.87;33.93;;;3.20;97.00;;;;;;4777127;29;20050;-82
2021/01/11 05:34:44;;;;;;;93.30;32.50;;;3.20;97.00;;;;;;4797834;29;20034;-81
2021/01/11 05:37:35;;;;;;;83.43;31.43;;;3.20;97.00;;;;;;4801204;29;20066;-92
2021/01/11 05:40:17;;;;;;;90.50;34.00;;;3.20;97.00;;;;;;4800017;29;20051;-88
2021/01/11 05:42:51;;;;;;;87.47;32.20;;;3.20;97.00;;;;;;4790164;29;20039;-84
2021/01/11 05:45:33;;;;;;;117.07;39.30;;;3.20;97.10;;;;;;4802271;29;20043;-84
2021/01/11 05:48:13;;;;;;;116.47;40.03;;;3.20;97.10;;;;;;4801580;29;20034;-86
2021/01/11 05:50:47;;;;;;;144.23;42.33;;;3.20;97.10;;;;;;4762085;29;20304;-81
2021/01/11 05:53:16;;;;;;;116.63;39.47;;;3.20;97.10;;;;;;4773135;29;20118;-80
2021/01/11 05:55:44;;;;;;;101.60;37.83;;;3.20;97.10;;;;;;4799732;29;20058;-83
2021/01/11 05:58:11;;;;;;;108.37;37.73;;;3.20;97.20;;;;;;4798790;29;20059;-82
2021/01/11 06:00:39;;;;;;;103.23;39.17;;;3.30;97.20;;;;;;4758542;29;20054;-82
2021/01/11 06:03:07;;;;;;;134.17;44.30;;;3.30;97.20;;;;;;4796800;29;20055;-82
2021/01/11 06:05:35;;;;;;;107.23;39.87;;;3.30;97.20;;;;;;4785131;29;20050;-84
2021/01/11 06:08:06;;;;;;;102.13;37.13;;;3.30;97.20;;;;;;4770022;29;20047;-83
2021/01/11 06:10:32;;;;;;;111.10;39.97;;;3.30;97.20;;;;;;4770541;29;20062;-86
2021/01/11 06:12:59;;;;;;;109.63;41.97;;;3.30;97.20;;;;;;4786494;29;20047;-87
2021/01/11 06:15:28;;;;;;;120.77;44.50;;;3.40;97.20;;;;;;4772888;29;20035;-92
2021/01/11 06:17:57;;;;;;;131.50;44.07;;;3.30;97.20;;;;;;4776688;29;20046;-83
2021/01/11 06:20:28;;;;;;;123.17;46.60;;;3.40;97.30;;;;;;4797891;29;20932;-81
2021/01/11 06:23:01;;;;;;;121.73;45.07;;;3.40;97.30;;;;;;4769982;29;20047;-85
2021/01/11 06:25:34;;;;;;;124.05;46.38;;;3.40;97.30;;;;;;4784330;29;20067;-80
2021/01/11 06:28:01;;;;;;;131.77;50.93;;;3.40;97.30;;;;;;4798362;29;20509;-87
2021/01/11 06:30:34;;;;;;;140.40;51.73;;;3.40;97.30;;;;;;4782337;29;20340;-78
2021/01/11 06:33:07;;;;;;;131.65;49.53;;;3.40;97.30;;;;;;4799180;29;20525;-80
2021/01/11 06:35:38;;;;;;;117.27;46.80;;;3.50;97.30;;;;;;4784159;29;20039;-82
2021/01/11 06:38:25;;;;;;;110.13;44.30;;;3.50;97.40;;;;;;4799048;29;20877;-81
2021/01/11 06:41:02;;;;;;;127.10;49.03;;;3.50;97.40;;;;;;4783405;29;20058;-81
2021/01/11 06:43:50;;;;;;;133.33;52.93;;;3.50;97.60;;;;;;4788075;29;20071;-81
2021/01/11 06:46:28;;;;;;;120.80;49.10;;;3.50;97.30;;;;;;4783907;29;20479;-81
2021/01/11 06:49:03;;;;;;;125.67;50.90;;;3.50;97.30;;;;;;4799156;29;20054;-81
2021/01/11 06:52:00;;;;;;;121.87;54.03;;;3.60;97.40;;;;;;4790078;29;20047;-81
2021/01/11 06:54:46;;;;;;;127.77;53.03;;;3.60;97.40;;;;;;4799087;29;20498;-81
2021/01/11 06:57:23;;;;;;;126.50;54.57;;;3.50;97.30;;;;;;4800579;29;20051;-81
2021/01/11 06:59:55;;;;;;;115.27;55.33;;;3.60;97.40;;;;;;4779051;29;20058;-81
2021/01/11 07:02:25;;;;;;;119.22;54.97;;;3.60;97.30;;;;;;4798576;29;20035;-81
2021/01/11 07:04:53;;;;;;;153.07;62.27;;;3.60;97.40;;;;;;4783516;29;20577;-81
2021/01/11 07:07:29;;;;;;;107.73;53.20;;;3.60;97.40;;;;;;4796834;29;20055;-81
2021/01/11 07:09:58;;;;;;;112.97;53.17;;;3.60;97.40;;;;;;4766940;29;20062;-81
2021/01/11 07:12:26;;;;;;;123.20;55.70;;;3.60;97.40;;;;;;4800418;29;20062;-81
2021/01/11 07:14:58;;;;;;;106.00;51.30;;;3.60;97.40;;;;;;4798680;29;20082;-81
2021/01/11 07:17:43;;;;;;;100.70;50.43;;;3.60;97.40;;;;;;4785065;29;20070;-81
2021/01/11 07:20:36;;;;;;;105.73;51.27;;;3.60;97.40;;;;;;4795290;29;20038;-81
2021/01/11 07:23:03;;;;;;;;;;;3.60;97.40;;;;;;4795563;29;20065;-82
2021/01/11 07:25:30;;;;;;;101.67;52.13;;;3.60;97.40;;;;;;4783373;29;19924;-81
2021/01/11 07:28:03;;;;;;;105.23;52.93;;;3.60;97.40;;;;;;4775744;29;20056;-81
2021/01/11 07:30:35;;;;;;;98.20;51.00;;;3.60;97.40;;;;;;4796029;29;20038;-81
2021/01/11 07:33:11;;;;;;;105.15;50.97;;;3.60;97.40;;;;;;4769325;29;20046;-82
2021/01/11 07:35:39;;;;;;;94.60;46.57;;;3.60;97.40;;;;;;4763332;29;20483;-82
2021/01/11 07:38:11;;;;;;;79.23;42.53;;;3.60;97.40;;;;;;4795142;29;20054;-81
2021/01/11 07:40:39;;;;;;;96.28;47.88;;;3.70;97.50;;;;;;4796085;29;21536;-83
2021/01/11 07:43:06;;;;;;;92.70;50.63;;;3.70;97.50;;;;;;4782585;29;20474;-84
2021/01/11 07:45:32;;;;;;;83.87;44.63;;;3.70;97.40;;;;;;4762171;29;20042;-84
2021/01/11 07:47:59;;;;;;;94.17;52.93;;;3.70;97.40;;;;;;4797028;29;20054;-84
2021/01/11 07:50:30;;;;;;;87.80;47.87;;;3.60;97.40;;;;;;4781890;29;20597;-84
2021/01/11 07:52:57;;;;;;;78.13;43.13;;;3.60;97.40;;;;;;4757644;29;20054;-84
2021/01/11 07:55:28;;;;;;;92.43;49.83;;;3.70;97.50;;;;;;4772133;29;20046;-85
2021/01/11 07:58:02;;;;;;;94.17;49.43;;;3.70;97.50;;;;;;4759395;29;20055;-84
2021/01/11 08:00:29;;;;;;;87.00;47.10;;;3.70;97.50;;;;;;4781477;29;20513;-84
2021/01/11 08:02:56;;;;;;;78.03;44.60;;;3.70;97.50;;;;;;4758252;29;20055;-84
2021/01/11 08:05:24;;;;;;;74.53;44.23;;;3.70;97.50;;;;;;4798202;29;20043;-85
2021/01/11 08:08:02;;;;;;;78.07;45.40;;;3.70;97.40;;;;;;4783124;29;20039;-85
2021/01/11 08:10:29;;;;;;;83.57;45.43;;;3.70;97.40;;;;;;4787545;29;20035;-84
2021/01/11 08:13:09;;;;;;;80.23;44.23;;;3.70;97.40;;;;;;4767427;29;20406;-84
2021/01/11 08:15:36;;;;;;;75.33;43.27;;;3.70;97.40;;;;;;4795968;29;20050;-84
2021/01/11 08:18:06;;;;;;;79.33;45.37;;;3.70;97.40;;;;;;4783366;29;20047;-84
2021/01/11 08:20:32;;;;;;;64.03;39.07;;;3.70;97.40;;;;;;4771785;29;20043;-83
2021/01/11 08:23:11;;;;;;;60.90;37.67;;;3.70;97.40;;;;;;4763757;29;20860;-84
2021/01/11 08:25:39;;;;;;;73.80;43.73;;;3.70;97.40;;;;;;4782758;29;20055;-85
2021/01/11 08:28:09;;;;;;;67.53;40.60;;;3.70;97.40;;;;;;4768284;29;20054;-84
2021/01/11 08:30:36;;;;;;;69.93;41.93;;;3.80;97.40;;;;;;4796107;29;20053;-84
2021/01/11 08:33:07;;;;;;;69.33;41.40;;;3.80;97.40;;;;;;4772533;29;20057;-84
2021/01/11 08:35:34;;;;;;;86.77;47.67;;;3.80;97.40;;;;;;4768835;29;20047;-84
2021/01/11 08:38:02;;;;;;;68.67;41.77;;;3.80;97.30;;;;;;4765307;29;20051;-85
2021/01/11 08:40:32;;;;;;;70.00;42.53;;;3.70;97.30;;;;;;4779997;29;20043;-85
2021/01/11 08:43:35;;;;;;;66.43;40.93;;;3.70;97.30;;;;;;4786877;29;20047;-85
2021/01/11 08:46:03;;;;;;;64.30;38.50;;;3.80;97.30;;;;;;4795721;29;20058;-84
2021/01/11 08:48:31;;;;;;;68.37;39.33;;;3.80;97.30;;;;;;4785753;29;20073;-85
2021/01/11 08:50:58;;;;;;;68.47;41.00;;;3.80;97.30;;;;;;4770277;29;20042;-84
2021/01/11 08:53:36;;;;;;;66.37;37.37;;;3.80;97.30;;;;;;4764426;29;20050;-85
2021/01/11 08:56:06;;;;;;;69.10;39.73;;;3.80;97.30;;;;;;4801254;29;20042;-84
2021/01/11 08:58:50;;;;;;;73.03;42.10;;;3.80;97.30;;;;;;4800407;29;20054;-85
2021/01/11 09:01:18;;;;;;;65.80;40.37;;;3.80;97.30;;;;;;4771800;29;20054;-84
2021/01/11 09:03:55;;;;;;;60.60;37.43;;;3.80;97.20;;;;;;4779010;29;20043;-85
2021/01/11 09:06:38;;;;;;;76.50;42.97;;;3.80;97.30;;;;;;4788024;29;20054;-84
2021/01/11 09:09:09;;;;;;;;;;;3.80;97.20;;;;;;4785189;29;20062;-85
2021/01/11 09:11:36;;;;;;;62.40;36.33;;;3.80;97.20;;;;;;4786244;29;19917;-84
2021/01/11 09:14:12;;;;;;;76.20;40.63;;;3.80;97.20;;;;;;4802369;29;20058;-84
2021/01/11 09:16:40;;;;;;;64.93;40.20;;;3.90;97.30;;;;;;4773606;29;20459;-84
2021/01/11 09:19:19;;;;;;;71.70;40.27;;;3.80;97.20;;;;;;4777083;29;20050;-85
2021/01/11 09:22:14;;;;;;;61.67;36.57;;;3.80;97.20;;;;;;4785362;29;20043;-84
2021/01/11 09:24:43;;;;;;;57.50;34.87;;;3.90;97.20;;;;;;4776556;29;20042;-85
2021/01/11 09:27:11;;;;;;;63.77;37.77;;;3.90;97.20;;;;;;4772406;29;20406;-85
2021/01/11 09:29:38;;;;;;;63.57;36.87;;;3.90;97.20;;;;;;4784873;29;20038;-86
2021/01/11 09:32:05;;;;;;;53.80;36.10;;;3.90;97.20;;;;;;4783598;29;20066;-86
2021/01/11 09:34:33;;;;;;;65.17;37.43;;;3.90;97.20;;;;;;4764699;29;20045;-86
2021/01/11 09:37:00;;;;;;;57.07;35.60;;;3.90;97.20;;;;;;4786408;29;20865;-84
2021/01/11 09:39:27;;;;;;;55.00;34.10;;;3.90;97.20;;;;;;4784447;29;20054;-85
2021/01/11 09:41:55;;;;;;;58.63;35.93;;;3.90;97.20;;;;;;4762145;29;20054;-85
2021/01/11 09:44:22;;;;;;;62.77;38.83;;;3.90;97.10;;;;;;4763124;29;20047;-85
2021/01/11 09:46:51;;;;;;;55.13;34.63;;;4.00;97.10;;;;;;4802535;29;20397;-85
2021/01/11 09:49:18;;;;;;;53.33;33.77;;;4.00;97.10;;;;;;4784252;29;20038;-85
2021/01/11 09:51:45;;;;;;;53.03;32.10;;;4.00;97.10;;;;;;4783627;29;20050;-85
2021/01/11 09:54:12;;;;;;;56.03;36.30;;;4.00;97.10;;;;;;4772844;29;20047;-85
2021/01/11 09:56:39;;;;;;;53.13;33.93;;;4.00;97.10;;;;;;4785835;29;20043;-85
2021/01/11 09:59:07;;;;;;;54.43;33.47;;;4.00;97.00;;;;;;4772731;29;20039;-83
2021/01/11 10:01:44;;;;;;;50.73;33.00;;;4.00;97.00;;;;;;4786214;29;20043;-84
2021/01/11 10:04:13;;;;;;;53.27;32.87;;;4.10;97.10;;;;;;4787062;29;20035;-84
2021/01/11 10:06:47;;;;;;;53.53;33.03;;;4.10;97.00;;;;;;4788264;29;20062;-85
2021/01/11 10:09:16;;;;;;;50.30;34.03;;;4.10;97.00;;;;;;4762426;29;20062;-85
2021/01/11 10:11:45;;;;;;;48.40;30.47;;;4.10;97.00;;;;;;4799800;29;20039;-86
2021/01/11 10:14:15;;;;;;;49.65;32.88;;;4.10;97.00;;;;;;4786426;29;20494;-85
2021/01/11 10:16:43;;;;;;;46.07;31.63;;;4.10;97.00;;;;;;4783036;29;20042;-84
2021/01/11 10:19:13;;;;;;;48.13;31.27;;;4.10;96.90;;;;;;4802952;29;20114;-84
2021/01/11 10:21:40;;;;;;;48.13;31.83;;;4.10;96.90;;;;;;4788185;29;20062;-85
2021/01/11 10:24:07;;;;;;;42.30;29.87;;;4.20;96.90;;;;;;4767338;29;20050;-85
2021/01/11 10:26:34;;;;;;;48.70;31.77;;;4.10;96.90;;;;;;4789093;29;20054;-85
2021/01/11 10:29:02;;;;;;;47.80;32.03;;;4.20;96.90;;;;;;4767301;29;20402;-85
2021/01/11 10:31:29;;;;;;;41.43;29.57;;;4.20;97.00;;;;;;4788419;29;20035;-86
2021/01/11 10:33:55;;;;;;;43.73;29.60;;;4.20;96.90;;;;;;4782084;29;20388;-85
2021/01/11 10:36:22;;;;;;;44.40;31.23;;;4.20;96.90;;;;;;4789220;29;20077;-84
2021/01/11 10:38:49;;;;;;;40.00;28.27;;;4.30;96.90;;;;;;4792592;29;20089;-85
2021/01/11 10:41:19;;;;;;;46.37;30.73;;;4.30;96.90;;;;;;4773057;29;20494;-85
2021/01/11 10:43:47;;;;;;;41.07;28.10;;;4.30;96.80;;;;;;4788943;29;20058;-85
2021/01/11 10:46:15;;;;;;;41.20;28.97;;;4.30;96.80;;;;;;4795852;29;20050;-85
2021/01/11 10:48:46;;;;;;;41.80;29.53;;;4.30;96.80;;;;;;4793301;29;20061;-86
2021/01/11 10:51:14;;;;;;;44.13;31.27;;;4.30;96.80;;;;;;4787375;29;20407;-85
2021/01/11 10:53:42;;;;;;;45.92;31.58;;;4.30;96.80;;;;;;4773902;29;20045;-85
2021/01/11 10:56:11;;;;;;;42.83;29.60;;;4.30;96.80;;;;;;4803771;29;20050;-84
2021/01/11 10:58:38;;;;;;;44.23;29.57;;;4.30;96.80;;;;;;4799728;29;20073;-83
2021/01/11 11:01:11;;;;;;;40.75;29.98;;;4.40;96.80;;;;;;4787941;29;20034;-84
2021/01/11 11:03:38;;;;;;;49.25;32.42;;;4.30;96.80;;;;;;4785545;29;20046;-84
2021/01/11 11:06:05;;;;;;;44.87;28.77;;;4.30;97.00;;;;;;4788572;29;20045;-84
2021/01/11 11:08:32;;;;;;;43.07;30.13;;;4.40;96.80;;;;;;4802609;29;20495;-85
2021/01/11 11:10:58;;;;;;;40.03;29.23;;;4.40;96.80;;;;;;4787437;29;20502;-85
2021/01/11 11:13:25;;;;;;;42.27;28.47;;;4.40;96.80;;;;;;4778884;29;20518;-85
2021/01/11 11:15:51;;;;;;;47.17;32.75;;;4.50;96.80;;;;;;4773905;29;20047;-85
2021/01/11 11:18:18;;;;;;;47.78;31.77;;;4.50;96.70;;;;;;4802181;29;20150;-85
2021/01/11 11:20:46;;;;;;;43.47;30.30;;;4.50;96.60;;;;;;4772407;29;20063;-84
2021/01/11 11:23:14;;;;;;;46.40;33.60;;;4.50;96.50;;;;;;4766281;29;20054;-85
2021/01/11 11:25:42;;;;;;;46.42;30.77;;;4.50;96.60;;;;;;4787644;29;20471;-85
2021/01/11 11:28:11;;;;;;;44.57;31.03;;;4.50;96.60;;;;;;4767084;29;20063;-85
2021/01/11 11:30:43;;;;;;;43.03;29.35;;;4.60;96.60;;;;;;4787260;29;20065;-85
2021/01/11 11:33:10;;;;;;;37.10;26.77;;;4.60;96.60;;;;;;4802772;29;20051;-85
2021/01/11 11:35:41;;;;;;;41.28;29.02;;;4.60;96.60;;;;;;4787610;29;20062;-84
2021/01/11 11:38:09;;;;;;;37.43;27.53;;;4.70;96.50;;;;;;4773458;29;20039;-84
2021/01/11 11:40:36;;;;;;;41.17;28.63;;;4.70;96.50;;;;;;4770943;29;20410;-85
2021/01/11 11:43:04;;;;;;;39.63;29.00;;;4.70;96.50;;;;;;4787721;29;20038;-84
2021/01/11 11:45:32;;;;;;;39.10;27.77;;;4.70;96.40;;;;;;4802064;29;20050;-84
2021/01/11 11:48:01;;;;;;;39.53;27.23;;;4.80;96.40;;;;;;4801809;29;20051;-84
2021/01/11 11:50:28;;;;;;;36.55;27.55;;;4.70;96.40;;;;;;4800388;29;20058;-84
2021/01/11 11:52:55;;;;;;;42.92;29.90;;;4.80;96.30;;;;;;4786950;29;20050;-85
2021/01/11 11:55:21;;;;;;;35.10;26.30;;;4.80;96.20;;;;;;4783969;29;20039;-84
2021/01/11 11:57:50;;;;;;;38.10;27.10;;;4.80;96.20;;;;;;4798876;29;20057;-83
2021/01/11 12:00:18;;;;;;;40.90;28.27;;;4.80;96.20;;;;;;4783924;29;20046;-84
2021/01/11 12:02:48;;;;;;;38.17;27.23;;;4.80;96.20;;;;;;4770404;29;20059;-84
2021/01/11 12:05:18;;;;;;;37.63;26.15;;;4.80;96.20;;;;;;4785754;29;20047;-83
2021/01/11 12:07:51;;;;;;;39.20;27.97;;;4.80;96.20;;;;;;4762494;29;20066;-82
2021/01/11 12:10:20;;;;;;;38.42;28.00;;;4.80;96.10;;;;;;4781765;29;20075;-82
2021/01/11 12:12:47;;;;;;;44.03;28.53;;;4.80;96.10;;;;;;4782491;29;20146;-81
2021/01/11 12:15:15;;;;;;;37.35;26.05;;;4.80;96.00;;;;;;4783182;29;20030;-81
2021/01/11 12:17:45;;;;;;;38.73;27.30;;;4.80;96.10;;;;;;4799113;29;20081;-84
2021/01/11 12:20:12;;;;;;;37.80;26.87;;;4.90;96.10;;;;;;4781083;29;20039;-83
2021/01/11 12:22:38;;;;;;;36.78;25.48;;;4.90;96.00;;;;;;4761631;29;20507;-82
2021/01/11 12:25:06;;;;;;;36.23;27.13;;;4.90;96.00;;;;;;4783051;29;20054;-83
2021/01/11 12:27:32;;;;;;;35.07;25.90;;;4.90;95.90;;;;;;4782943;29;20521;-83
2021/01/11 12:30:00;;;;;;;37.27;25.47;;;5.00;95.90;;;;;;4796131;29;20070;-83
2021/01/11 12:32:26;;;;;;;35.42;26.05;;;5.00;96.10;;;;;;4783255;29;20050;-80
2021/01/11 12:34:53;;;;;;;34.42;25.58;;;5.10;95.70;;;;;;4797840;29;20054;-82
2021/01/11 12:37:20;;;;;;;32.80;24.00;;;5.10;95.60;;;;;;4772324;29;20048;-82
2021/01/11 12:39:47;;;;;;;36.53;26.00;;;5.10;95.60;;;;;;4781135;29;20050;-82
2021/01/11 12:42:14;;;;;;;31.70;24.23;;;5.10;95.60;;;;;;4763498;29;20058;-82
2021/01/11 12:44:41;;;;;;;37.35;24.88;;;5.10;95.50;;;;;;4797376;29;20051;-82
2021/01/11 12:47:10;;;;;;;32.08;24.10;;;5.10;95.50;;;;;;4766537;29;20483;-82
2021/01/11 12:49:40;;;;;;;33.88;24.08;;;5.10;95.40;;;;;;4778982;29;20039;-82
2021/01/11 12:52:12;;;;;;;32.10;22.45;;;5.10;95.40;;;;;;4767199;29;20057;-82
2021/01/11 12:54:38;;;;;;;33.15;22.73;;;5.10;95.50;;;;;;4791485;29;20055;-82
2021/01/11 12:57:09;;;;;;;34.88;24.23;;;5.00;95.40;;;;;;4798241;29;20062;-82